Latest Coastal Weather Observations for Moruya Airport

IDN60701

Issued at 4:02 am EST Tuesday 28 June 2022 (issued every 10 minutes, with the page automatically refreshed every 10 minutes)

About coastal observations | Map of coastal stations | Coastal observations for NSW | Marine services | Other Formats
Station Details ID: 069148 Name: MORUYA AIRPORT AWS Lat: -35.90 Lon: 150.14 Height: 4.0 m
Data from the previous 72 hours. | See also: Recent months at Moruya Airport
Date/Time
EST
Wind Sea
Height
m
Swell Vis
km
Cloud Weather Temp
°C
Press
MSL
hPa
Rain since
9am
mm
Dir  Spd
kts
Gust
kts
Height
m
Period
s
Dir
28/04:00am W 7 9 - - - - 10 Clear - 4.0 1030.6 0.0
28/03:30am WSW 5 8 - - - - 10 - - 2.3 1030.5 0.0
28/03:00am WSW 4 5 - - - - 10 - - 2.1 1030.9 0.0
28/02:30am WSW 4 5 - - - - 10 - - 1.7 1031.1 0.0
28/02:00am WSW 5 7 - - - - 10 - - 2.2 1031.4 0.0
28/01:30am W 4 6 - - - - 10 - - 2.4 1031.4 0.0
28/01:00am W 5 6 - - - - 10 - - 2.8 1031.5 0.0
28/12:30am W 5 7 - - - - 10 - - 2.9 1031.5 0.0
28/12:00am WSW 5 8 - - - - 10 - - 4.1 1031.7 0.0
 
Date/Time
EST
Wind Sea
Height
m
Swell Vis
km
Cloud Weather Temp
°C
Press
MSL
hPa
Rain since
9am
mm
Dir  Spd
kts
Gust
kts
Height
m
Period
s
Dir
27/11:30pm W 7 9 - - - - 10 - - 5.0 1031.7 0.0
27/11:00pm W 6 8 - - - - 10 Partly cloudy - 4.3 1031.8 0.0
27/10:30pm WSW 5 6 - - - - 10 - - 3.8 1031.8 0.0
27/10:00pm WSW 4 5 - - - - 10 Partly cloudy - 4.1 1031.6 0.0
27/09:30pm WSW 3 3 - - - - 10 Partly cloudy - 4.7 1031.6 0.0
27/09:00pm WSW 4 6 - - - - 10 Partly cloudy - 4.8 1031.7 0.0
27/08:30pm WSW 4 5 - - - - 10 - - 6.0 1031.6 0.0
27/08:00pm WSW 4 5 - - - - 10 - - 6.5 1031.4 0.0
27/07:30pm SW 6 8 - - - - 10 - - 7.9 1031.1 0.0
27/07:00pm SW 7 9 - - - - 10 Partly cloudy - 7.8 1030.7 0.0
27/06:30pm WSW 5 6 - - - - 10 - - 8.1 1030.2 0.0
27/06:00pm SSW 6 9 - - - - 10 Mostly clear - 9.4 1029.9 0.0
27/05:30pm S 7 8 - - - - 10 Partly cloudy - 10.5 1029.5 0.0
27/05:00pm SSW 6 7 - - - - 10 Partly cloudy - 10.5 1029.3 0.0
27/04:30pm S 7 10 - - - - 10 Partly cloudy - 12.1 1029.0 0.0
27/04:00pm SSW 8 11 - - - - 10 Partly cloudy - 13.6 1028.8 0.0
27/03:30pm SSW 9 13 - - - - 10 Partly cloudy - 14.3 1028.5 0.0
27/03:00pm S 12 17 - - - - 10 - - 14.4 1028.3 0.0
27/02:30pm SSW 11 17 - - - - 10 - - 14.7 1028.0 0.0
27/02:00pm SW 12 19 - - - - 10 Partly cloudy - 14.8 1027.7 0.0
27/01:30pm SW 14 21 - - - - 10 - - 15.1 1027.8 0.0
27/01:00pm SW 13 17 - - - - 10 - - 14.7 1027.7 0.0
27/12:30pm SSW 9 15 - - - - 10 - - 14.5 1027.8 0.0
27/12:00pm SSW 11 18 - - - - 10 - - 14.4 1027.8 0.0
27/11:30am SSW 10 14 - - - - 10 - - 14.1 1027.9 0.0
27/11:00am SSW 10 14 - - - - 10 - - 13.8 1028.1 0.0
27/10:30am SW 11 17 - - - - 10 - - 13.1 1028.3 0.0
27/10:00am SW 6 9 - - - - 10 - - 12.0 1028.5 0.0
27/09:30am SW 4 6 - - - - 10 - - 10.5 1028.4 0.0
27/09:00am WSW 3 5 - - - - 10 - - 8.0 1028.1 0.0
27/08:30am W 2 6 - - - - 10 Partly cloudy - 6.2 1027.9 0.0
27/08:00am WNW 3 4 - - - - 10 Partly cloudy - 4.4 1027.4 0.0
27/07:30am WNW 4 6 - - - - 10 - - 4.2 1027.2 0.0
27/07:00am WSW 3 5 - - - - 10 - - 3.1 1026.8 0.0
27/06:30am WSW 4 6 - - - - 10 Partly cloudy - 4.0 1026.6 0.0
27/06:00am WSW 4 5 - - - - 10 Partly cloudy - 3.9 1026.2 0.0
27/05:30am SW 3 5 - - - - 10 Partly cloudy - 4.4 1026.0 0.0
27/05:00am WSW 5 6 - - - - 10 - - 4.4 1025.4 0.0
27/04:30am W 1 3 - - - - 10 - - 4.6 1025.3 0.0
27/04:00am W 5 7 - - - - 10 Partly cloudy - 5.4 1025.1 0.0
27/03:30am WSW 5 7 - - - - 10 Partly cloudy - 6.2 1024.9 0.0
27/03:00am W 5 7 - - - - 10 Mostly cloudy - 6.4 1024.8 0.0
27/02:30am W 4 5 - - - - 10 - - 5.0 1024.9 0.0
27/02:00am W 4 5 - - - - 10 - - 5.4 1024.8 0.0
27/01:30am W 4 5 - - - - 10 - - 6.7 1024.7 0.0
27/01:00am WSW 4 5 - - - - 10 - - 7.2 1024.8 0.0
27/12:30am W 4 6 - - - - 10 - - 7.4 1024.8 0.0
27/12:00am WSW 5 7 - - - - 10 Mostly cloudy - 8.6 1024.9 0.0
 
Date/Time
EST
Wind Sea
Height
m
Swell Vis
km
Cloud Weather Temp
°C
Press
MSL
hPa
Rain since
9am
mm
Dir  Spd
kts
Gust
kts
Height
m
Period
s
Dir
26/11:30pm W 6 7 - - - - 10 - - 8.9 1025.0 0.0
26/11:00pm W 5 7 - - - - 10 Partly cloudy - 9.7 1024.9 0.0
26/10:30pm W 5 8 - - - - 10 Partly cloudy - 10.5 1024.7 0.0
26/10:00pm SW 10 13 - - - - 10 Partly cloudy - 9.4 1024.4 0.0
26/09:30pm W 3 5 - - - - 10 Partly cloudy - 9.5 1023.9 0.0
26/09:00pm WSW 5 6 - - - - 10 Cloudy - 10.4 1023.8 0.0
26/08:30pm W 5 7 - - - - 10 Partly cloudy - 10.9 1023.6 0.0
26/08:00pm W 4 5 - - - - 10 Partly cloudy - 9.8 1023.5 0.0
26/07:30pm W 4 5 - - - - 10 Partly cloudy - 9.6 1023.3 0.0
26/07:00pm WNW 4 5 - - - - 10 Cloudy - 9.1 1023.1 0.0
26/06:30pm WNW 2 5 - - - - 10 Partly cloudy - 9.2 1022.8 0.0
26/06:00pm WNW 3 4 - - - - 10 Cloudy - 10.0 1022.6 0.0
26/05:30pm CALM 0 0 - - - - 10 Partly cloudy - 9.8 1022.4 0.0
26/05:00pm NNW 3 4 - - - - 10 - - 11.0 1021.9 0.0
26/04:30pm NNE 4 5 - - - - 10 - - 14.2 1021.8 0.0
26/04:00pm NE 5 6 - - - - 10 - - 16.3 1021.6 0.0
26/03:30pm NE 5 7 - - - - 10 - - 16.7 1021.7 0.0
26/03:00pm NE 6 8 - - - - 10 - - 16.9 1021.6 0.0
26/02:30pm NE 6 7 - - - - 10 - - 17.1 1021.6 0.0
26/02:00pm ENE 6 6 - - - - 10 - - 16.9 1021.5 0.0
26/01:30pm ENE 6 7 - - - - 10 - - 16.9 1021.5 0.0
26/01:00pm ENE 5 7 - - - - 10 - - 16.6 1021.8 0.0
26/12:30pm ENE 5 6 - - - - 10 - - 17.0 1022.1 0.0
26/12:00pm SSW 4 5 - - - - 10 - - 16.9 1022.3 0.0
26/11:30am SW 4 5 - - - - 10 - - 16.5 1022.5 0.0
26/11:00am SW 5 6 - - - - 10 - - 15.2 1023.0 0.0
26/10:30am SW 4 5 - - - - 10 - - 13.5 1023.4 0.0
26/10:00am WSW 6 8 - - - - 10 - - 11.5 1023.7 0.0
26/09:30am SW 5 7 - - - - 10 - - 9.4 1023.4 0.0
26/09:00am CALM 0 0 - - - - 10 - - 8.4 1023.2 0.2
26/08:30am CALM 0 0 - - - - 10 - - 5.7 1023.1 0.2
26/08:00am WSW 4 6 - - - - 10 - - 3.7 1022.8 0.2
26/07:30am WSW 1 3 - - - - 10 - - 3.0 1022.5 0.0
26/07:00am WSW 4 5 - - - - 10 - - 2.4 1022.3 0.0
26/06:30am CALM 0 2 - - - - 10 - - 2.6 1021.9 0.0
26/06:00am SW 2 4 - - - - 10 - - 2.5 1022.1 0.0
26/05:30am SW 2 3 - - - - 10 - - 2.8 1021.8 0.0
26/05:00am SW 3 4 - - - - 10 - - 3.0 1021.4 0.0
26/04:30am SW 6 7 - - - - 10 - - 3.4 1021.3 0.0
26/04:00am SSW 6 8 - - - - 10 - - 3.8 1021.4 0.0
26/03:30am SW 6 7 - - - - 10 - - 3.3 1021.3 0.0
26/03:00am WNW 2 4 - - - - 10 - - 2.8 1021.3 0.0
26/02:30am CALM 0 0 - - - - 10 - - 2.7 1021.3 0.0
26/02:00am CALM 0 0 - - - - 10 - - 3.0 1021.4 0.0
26/01:30am CALM 0 0 - - - - 10 - - 3.6 1021.3 0.0
26/01:00am NW 3 5 - - - - 10 - - 3.3 1021.3 0.0
26/12:50am NW 1 6 - - - - 10 - - 3.7 1021.3 0.0
26/12:30am CALM 0 0 - - - - 10 - - 3.5 1021.4 0.0
26/12:17am WNW 1 5 - - - - 4 - - 4.0 1021.4 0.0
26/12:03am W 3 4 - - - - 10 - - 4.1 1021.4 0.0
26/12:00am WNW 2 4 - - - - 10 - - 4.4 1021.4 0.0
 
Date/Time
EST
Wind Sea
Height
m
Swell Vis
km
Cloud Weather Temp
°C
Press
MSL
hPa
Rain since
9am
mm
Dir  Spd
kts
Gust
kts
Height
m
Period
s
Dir
25/11:30pm CALM 0 2 - - - - 0.9 - - 4.4 1021.6 0.0
25/11:00pm CALM 0 0 - - - - 3 - - 4.6 1021.6 0.0
25/10:53pm CALM 0 0 - - - - 5 - - 4.7 1021.6 0.0
25/10:30pm CALM 0 0 - - - - 10 - - 5.4 1021.5 0.0
25/10:00pm NW 1 3 - - - - 10 - - 6.9 1021.7 0.0
25/09:30pm CALM 0 0 - - - - 10 - - 7.9 1021.7 0.0
25/09:00pm W 4 5 - - - - 10 Mostly clear - 8.6 1021.6 0.0
25/08:30pm WSW 3 5 - - - - 10 Partly cloudy - 9.2 1021.6 0.0
25/08:00pm W 6 7 - - - - 10 - - 9.4 1021.7 0.0
25/07:30pm W 5 7 - - - - 10 - - 9.4 1021.5 0.0
25/07:00pm WNW 3 4 - - - - 10 - - 9.1 1021.2 0.0
25/06:30pm CALM 0 0 - - - - 10 - - 9.6 1020.8 0.0
25/06:00pm CALM 0 0 - - - - 10 - - 9.9 1020.4 0.0
25/05:30pm CALM 0 0 - - - - 10 - - 10.8 1019.9 0.0
25/05:00pm CALM 0 0 - - - - 10 - - 12.3 1019.5 0.0
25/04:30pm CALM 0 0 - - - - 10 - - 14.7 1019.3 0.0
25/04:00pm NE 5 6 - - - - 10 - - 16.5 1019.2 0.0
25/03:30pm NE 6 7 - - - - 10 - - 16.8 1019.0 0.0
25/03:00pm ENE 7 8 - - - - 10 - - 17.0 1018.7 0.0
25/02:30pm ENE 8 9 - - - - 10 - - 16.9 1018.7 0.0
25/02:00pm ENE 6 7 - - - - 10 - - 17.4 1018.8 0.0
25/01:30pm NE 5 6 - - - - 10 - - 17.9 1018.9 0.0
25/01:00pm NW 3 5 - - - - 10 - - 19.0 1019.0 0.0
25/12:30pm NW 6 9 - - - - 10 - - 18.4 1019.2 0.0
25/12:00pm WNW 6 8 - - - - 10 - - 17.4 1019.5 0.0
25/11:30am SW 5 6 - - - - 10 - - 16.9 1019.8 0.0
25/11:00am SW 6 7 - - - - 10 - - 15.8 1020.2 0.0
25/10:30am W 4 6 - - - - 10 - - 14.9 1020.5 0.0
25/10:00am WSW 6 7 - - - - 10 - - 13.6 1020.5 0.0
25/09:30am W 5 7 - - - - 10 - - 12.2 1020.4 0.0
25/09:00am SW 5 6 - - - - 10 - - 10.0 1020.1 0.0
25/08:30am W 3 4 - - - - 10 - - 9.1 1019.9 0.0
25/08:00am WSW 2 5 - - - - 10 - - 7.3 1019.8 0.0
25/07:30am WSW 2 5 - - - - 10 Partly cloudy - 7.2 1019.6 0.0
25/07:00am W 1 4 - - - - 10 Partly cloudy - 6.5 1019.5 0.0
25/06:30am W 3 4 - - - - 10 Partly cloudy - 6.8 1019.1 0.0
25/06:24am W 3 4 - - - - 10 Partly cloudy - 6.9 1019.1 0.0
25/06:07am CALM 0 0 - - - - 5 - - 6.9 1018.9 0.0
25/06:00am CALM 0 0 - - - - 10 - - 7.1 1018.8 0.0
25/05:30am WSW 3 4 - - - - 10 Partly cloudy - 7.3 1018.4 0.0
25/05:00am WSW 3 5 - - - - 10 Partly cloudy - 7.6 1018.0 0.0
25/04:30am WSW 3 3 - - - - 10 Partly cloudy - 7.7 1017.9 0.0

Other formats

Comma delimited format used in spreadsheet applications
http://www.bom.gov.au/fwo/IDN60701/IDN60701.95937.axf

JavaScript Object Notation format (JSON) in row-major order
http://www.bom.gov.au/fwo/IDN60701/IDN60701.95937.json

Data quality

Most of these data are generated automatically and are frequently updated. Quality checks on data are not normally performed. It is possible for incorrect values to appear. Refer to information at About Latest Weather Observations and please check the disclaimer before using these data.